Terminal Aerodrome Forecast
Issued by NWS

Home | Current Version | Previous Version | Text Only | Print | Product List | Glossary On
Versions: 1 2 3 4 5 6 7 8 9 10 11 12 13 14 15 16 17
000
FTUS43 KGRR 190500
TAFJXN
TAF
KJXN 190540Z 1906/2006 06004KT P6SM FEW035
     FM191000 11003KT 2SM BR BKN007
     FM191400 15006KT P6SM SCT010
     FM191800 17009G17KT P6SM SCT035
     FM200000 18009KT P6SM SCT200=

USA.gov is the U.S. government's official web portal to all federal, state and local government web resources and services.